createdAt,value
2018-11-05T00:01:50.484Z,18.40
2018-11-05T00:04:18.643Z,20.80
2018-11-05T00:06:46.828Z,17.10
2018-11-05T00:09:14.974Z,17.73
2018-11-05T00:11:43.152Z,19.13
2018-11-05T00:14:11.805Z,20.10
2018-11-05T00:16:39.932Z,16.73
2018-11-05T00:19:08.374Z,19.33
2018-11-05T00:21:36.662Z,19.60
2018-11-05T00:24:06.688Z,19.67
2018-11-05T00:26:34.818Z,16.60
2018-11-05T00:29:06.984Z,19.73
2018-11-05T00:31:35.453Z,22.33
2018-11-05T00:34:06.754Z,16.97
2018-11-05T00:36:34.920Z,19.00
2018-11-05T00:39:07.581Z,29.50
2018-11-05T00:41:36.915Z,19.03
2018-11-05T00:44:05.093Z,16.63
2018-11-05T00:46:33.234Z,23.10
2018-11-05T00:49:05.774Z,19.43
2018-11-05T00:51:35.389Z,18.30
2018-11-05T00:54:05.277Z,20.20
2018-11-05T00:56:34.522Z,23.90
2018-11-05T00:59:05.153Z,21.53
2018-11-05T01:01:33.366Z,18.30
2018-11-05T01:04:05.668Z,15.80
2018-11-05T01:06:33.876Z,20.00
2018-11-05T01:09:05.500Z,16.93
2018-11-05T01:11:33.701Z,18.07
2018-11-05T01:14:06.277Z,21.23
2018-11-05T01:16:34.523Z,20.87
2018-11-05T01:19:04.864Z,17.40
2018-11-05T01:21:33.018Z,18.20
2018-11-05T01:24:04.166Z,19.07
2018-11-05T01:26:32.327Z,17.93
2018-11-05T01:29:00.466Z,18.83
2018-11-05T01:31:29.012Z,18.77
2018-11-05T01:33:57.137Z,16.00
2018-11-05T01:36:25.385Z,15.97
2018-11-05T01:38:54.294Z,18.80
2018-11-05T01:41:22.472Z,20.00
2018-11-05T01:43:50.912Z,18.13
2018-11-05T01:46:19.100Z,20.03
2018-11-05T01:48:48.245Z,18.80
2018-11-05T01:51:16.412Z,18.40
2018-11-05T01:53:44.539Z,19.53
2018-11-05T01:56:12.720Z,16.43
2018-11-05T01:58:40.884Z,16.20
2018-11-05T02:01:09.049Z,15.83
2018-11-05T02:03:37.261Z,15.60
2018-11-05T02:06:06.069Z,15.23
2018-11-05T02:08:34.258Z,19.20
2018-11-05T02:11:04.612Z,16.20
2018-11-05T02:13:32.933Z,21.70
2018-11-05T02:16:02.943Z,15.97
2018-11-05T02:18:31.073Z,17.10
2018-11-05T02:20:59.256Z,18.10
2018-11-05T02:23:27.428Z,17.27
2018-11-05T02:25:55.640Z,17.80
2018-11-05T02:28:23.794Z,14.67
2018-11-05T02:30:51.960Z,15.53
2018-11-05T02:33:20.184Z,12.70
2018-11-05T02:35:48.450Z,16.07
2018-11-05T02:38:16.624Z,19.00
2018-11-05T02:40:44.829Z,16.47
2018-11-05T02:43:12.977Z,18.17
2018-11-05T02:45:41.149Z,17.40
2018-11-05T02:48:09.277Z,19.97
2018-11-05T02:50:37.473Z,15.90
2018-11-05T02:53:05.608Z,20.63
2018-11-05T02:55:33.828Z,16.80
2018-11-05T02:58:03.800Z,18.63
2018-11-05T03:00:31.934Z,19.77
2018-11-05T03:03:00.225Z,20.57
2018-11-05T03:05:28.220Z,20.30
2018-11-05T03:07:56.392Z,20.73
2018-11-05T03:10:24.733Z,13.90
2018-11-05T03:12:52.910Z,18.00
2018-11-05T03:15:21.079Z,16.83
2018-11-05T03:17:49.276Z,15.80
2018-11-05T03:20:17.484Z,18.63
2018-11-05T03:22:45.782Z,18.53
2018-11-05T03:25:13.963Z,17.00
2018-11-05T03:27:42.331Z,17.37
2018-11-05T03:30:14.692Z,17.30
2018-11-05T03:32:43.010Z,16.17
2018-11-05T03:35:12.260Z,17.83
2018-11-05T03:37:41.356Z,15.43
2018-11-05T03:40:10.361Z,20.57
2018-11-05T03:42:39.021Z,19.83
2018-11-05T03:45:08.240Z,15.90
2018-11-05T03:47:36.450Z,18.60
2018-11-05T03:50:13.893Z,16.43
2018-11-05T03:52:42.585Z,17.53
2018-11-05T03:55:10.822Z,17.63
2018-11-05T03:57:38.990Z,16.13
2018-11-05T04:00:09.149Z,18.37
2018-11-05T04:02:37.293Z,15.47
2018-11-05T04:05:05.962Z,18.73
2018-11-05T04:07:35.036Z,19.83
2018-11-05T04:10:05.612Z,17.10
2018-11-05T04:12:33.912Z,18.23
2018-11-05T04:15:03.818Z,22.07
2018-11-05T04:17:32.888Z,18.30
2018-11-05T04:20:06.486Z,18.20
2018-11-05T04:22:34.660Z,15.90
2018-11-05T04:25:07.145Z,20.30
2018-11-05T04:27:35.367Z,13.90
2018-11-05T04:30:04.640Z,15.23
2018-11-05T04:32:32.825Z,16.97
2018-11-05T04:35:05.768Z,17.43
2018-11-05T04:37:33.973Z,17.50
2018-11-05T04:40:04.996Z,21.23
2018-11-05T04:42:33.188Z,18.30
2018-11-05T04:45:02.864Z,21.43
2018-11-05T04:47:31.905Z,16.90
2018-11-05T04:50:00.049Z,20.07
2018-11-05T04:52:28.525Z,20.20
2018-11-05T04:54:57.644Z,16.00
2018-11-05T04:57:25.798Z,20.70
2018-11-05T04:59:53.937Z,19.83
2018-11-05T05:02:22.709Z,21.60
2018-11-05T05:04:50.837Z,17.80
2018-11-05T05:07:19.069Z,21.53
2018-11-05T05:09:47.220Z,19.17
2018-11-05T05:12:15.416Z,19.80
2018-11-05T05:14:43.613Z,20.40
2018-11-05T05:19:46.532Z,16.37
2018-11-05T05:22:14.690Z,19.40
2018-11-05T05:24:42.810Z,20.20
2018-11-05T05:27:11.010Z,18.80
2018-11-05T05:29:39.181Z,20.03
2018-11-05T05:32:07.348Z,18.83
2018-11-05T05:34:42.417Z,18.67
2018-11-05T05:37:10.614Z,16.17
2018-11-05T05:39:38.776Z,18.47
2018-11-05T05:42:07.179Z,20.90
2018-11-05T05:44:35.344Z,19.87
2018-11-05T05:47:05.763Z,20.73
2018-11-05T05:49:34.173Z,21.53
2018-11-05T05:52:04.344Z,21.60
2018-11-05T05:54:32.514Z,21.97
2018-11-05T05:57:03.662Z,22.53
2018-11-05T05:59:31.849Z,19.40
2018-11-05T06:01:59.972Z,19.70
2018-11-05T06:04:28.343Z,21.73
2018-11-05T06:06:56.508Z,29.23
2018-11-05T06:09:25.656Z,23.50
2018-11-05T06:11:53.832Z,20.60
2018-11-05T06:14:22.027Z,22.33
2018-11-05T06:16:51.094Z,26.00
2018-11-05T06:19:19.272Z,24.13
2018-11-05T06:21:47.521Z,22.73
2018-11-05T06:24:15.701Z,26.27
2018-11-05T06:26:43.916Z,25.27
2018-11-05T06:29:12.113Z,30.07
2018-11-05T06:31:40.249Z,27.33
2018-11-05T06:34:08.446Z,22.63
2018-11-05T06:36:36.640Z,23.33
2018-11-05T06:39:10.935Z,24.60
2018-11-05T06:41:39.369Z,27.43
2018-11-05T06:44:07.548Z,23.23
2018-11-05T06:46:35.635Z,23.10
2018-11-05T06:49:05.283Z,29.90
2018-11-05T06:51:33.402Z,25.60
2018-11-05T06:54:05.073Z,28.93
2018-11-05T06:56:33.603Z,22.17
2018-11-05T06:59:06.656Z,25.47
2018-11-05T07:01:34.856Z,23.30
2018-11-05T07:04:07.241Z,23.53
2018-11-05T07:06:35.471Z,19.80
2018-11-05T07:09:07.408Z,21.47
2018-11-05T07:11:35.901Z,28.20
2018-11-05T07:14:05.312Z,26.10
2018-11-05T07:16:33.478Z,23.93
2018-11-05T07:19:06.811Z,28.23
2018-11-05T07:21:34.795Z,26.03
2018-11-05T07:24:06.613Z,26.20
2018-11-05T07:26:34.851Z,29.70
2018-11-05T07:29:09.788Z,22.13
2018-11-05T07:31:37.905Z,23.93
2018-11-05T07:34:07.612Z,25.20
2018-11-05T07:36:35.621Z,26.37
2018-11-05T07:39:08.377Z,25.70
2018-11-05T07:41:36.972Z,29.47
2018-11-05T07:44:06.724Z,21.83
2018-11-05T07:46:34.916Z,27.13
2018-11-05T07:49:06.729Z,25.50
2018-11-05T07:51:35.296Z,27.67
2018-11-05T07:54:05.216Z,25.90
2018-11-05T07:56:33.477Z,22.60
2018-11-05T07:59:05.363Z,27.67
2018-11-05T08:01:33.500Z,26.97
2018-11-05T08:04:03.744Z,28.20
2018-11-05T08:06:32.366Z,23.70
2018-11-05T08:09:00.501Z,27.53
2018-11-05T08:11:28.940Z,27.33
2018-11-05T08:13:57.132Z,31.10
2018-11-05T08:16:25.283Z,27.33
2018-11-05T08:18:53.459Z,24.63
2018-11-05T08:21:21.612Z,27.03
2018-11-05T08:23:49.925Z,24.63
2018-11-05T08:26:18.084Z,27.50
2018-11-05T08:28:46.245Z,29.90
2018-11-05T08:31:14.421Z,30.43
2018-11-05T08:33:42.610Z,25.10
2018-11-05T08:36:10.761Z,34.30
2018-11-05T08:38:38.897Z,34.37
2018-11-05T08:41:07.064Z,23.90
2018-11-05T08:43:35.781Z,19.33
2018-11-05T08:46:06.104Z,25.03
2018-11-05T08:48:34.282Z,27.20
2018-11-05T08:51:07.715Z,26.57
2018-11-05T08:53:35.695Z,31.00
2018-11-05T08:56:07.588Z,26.10
2018-11-05T08:58:35.749Z,29.17
2018-11-05T09:01:11.535Z,24.47
2018-11-05T09:03:40.045Z,25.60
2018-11-05T09:06:09.152Z,24.63
2018-11-05T09:08:37.321Z,25.37
2018-11-05T09:11:08.408Z,28.10
2018-11-05T09:13:36.224Z,21.77
2018-11-05T09:16:07.104Z,22.67
2018-11-05T09:18:35.440Z,22.07
2018-11-05T09:21:07.569Z,24.37
2018-11-05T09:23:35.736Z,25.83
2018-11-05T09:26:05.278Z,22.83
2018-11-05T09:28:33.442Z,27.33
2018-11-05T09:31:04.513Z,20.13
2018-11-05T09:33:32.649Z,20.33
2018-11-05T09:36:03.614Z,22.40
2018-11-05T09:38:31.825Z,19.43
2018-11-05T09:40:59.989Z,23.97
2018-11-05T09:43:28.153Z,24.93
2018-11-05T09:45:56.308Z,20.13
2018-11-05T09:48:24.497Z,23.57
2018-11-05T09:50:52.685Z,20.43
2018-11-05T09:53:20.873Z,26.93
2018-11-05T09:55:49.257Z,26.80
2018-11-05T09:58:17.458Z,24.50
2018-11-05T10:00:45.621Z,22.30
2018-11-05T10:03:15.421Z,24.43
2018-11-05T10:05:43.480Z,22.30
2018-11-05T10:08:11.657Z,23.63
2018-11-05T10:10:40.713Z,23.47
2018-11-05T10:13:08.905Z,26.10
2018-11-05T10:15:37.120Z,20.77
2018-11-05T10:18:05.521Z,22.33
2018-11-05T10:20:33.680Z,25.50
2018-11-05T10:23:03.737Z,25.93
2018-11-05T10:25:31.910Z,26.03
2018-11-05T10:28:05.533Z,23.47
2018-11-05T10:30:33.881Z,25.40
2018-11-05T10:33:03.764Z,22.07
2018-11-05T10:35:37.352Z,27.30
2018-11-05T10:38:06.880Z,28.83
2018-11-05T10:40:36.185Z,23.43
2018-11-05T10:43:04.909Z,22.90
2018-11-05T10:45:33.073Z,22.23
2018-11-05T10:48:01.285Z,22.50
2018-11-05T10:50:29.651Z,22.70
2018-11-05T10:52:57.665Z,23.47
2018-11-05T10:55:25.839Z,28.47
2018-11-05T10:57:54.110Z,25.43
2018-11-05T11:00:28.696Z,25.40
2018-11-05T11:03:06.451Z,27.30
2018-11-05T11:05:34.625Z,24.97
2018-11-05T11:08:06.877Z,21.83
2018-11-05T11:10:35.044Z,19.53
2018-11-05T11:13:06.594Z,24.53
2018-11-05T11:15:34.752Z,26.67
2018-11-05T11:18:04.041Z,23.50
2018-11-05T11:20:32.953Z,23.10
2018-11-05T11:23:05.565Z,25.10
2018-11-05T11:25:33.728Z,22.67
2018-11-05T11:28:07.042Z,30.50
2018-11-05T11:30:35.021Z,32.33
2018-11-05T11:33:04.201Z,24.03
2018-11-05T11:35:32.385Z,26.70
2018-11-05T11:38:00.570Z,21.57
2018-11-05T11:40:28.743Z,22.07
2018-11-05T11:42:57.059Z,23.67
2018-11-05T11:45:25.418Z,20.97
2018-11-05T11:47:53.624Z,20.97
2018-11-05T11:50:23.001Z,23.53
2018-11-05T11:52:52.219Z,22.77
2018-11-05T11:55:21.620Z,24.57
2018-11-05T11:57:49.769Z,24.07
2018-11-05T12:00:25.488Z,24.87
2018-11-05T12:02:54.099Z,22.70
2018-11-05T12:05:22.427Z,30.20
2018-11-05T12:07:50.610Z,23.17
2018-11-05T12:10:23.124Z,23.00
2018-11-05T12:12:51.288Z,28.83
2018-11-05T12:15:20.200Z,21.70
2018-11-05T12:17:49.482Z,22.50
2018-11-05T12:20:18.971Z,23.50
2018-11-05T12:22:47.792Z,23.03
2018-11-05T12:25:15.941Z,21.80
2018-11-05T12:27:44.208Z,23.33
2018-11-05T12:30:16.692Z,18.33
2018-11-05T12:32:45.910Z,19.30
2018-11-05T12:35:14.275Z,21.93
2018-11-05T12:37:44.059Z,18.50
2018-11-05T12:40:14.000Z,19.23
2018-11-05T12:42:42.918Z,21.00
2018-11-05T12:45:11.208Z,21.70
2018-11-05T12:47:39.458Z,21.40
2018-11-05T12:50:11.241Z,21.20
2018-11-05T12:52:39.448Z,18.60
2018-11-05T12:55:08.609Z,21.93
2018-11-05T12:57:36.800Z,17.50
2018-11-05T13:00:10.685Z,16.17
2018-11-05T13:02:38.867Z,19.77
2018-11-05T13:05:07.921Z,17.10
2018-11-05T13:07:36.198Z,21.43
2018-11-05T13:10:09.684Z,18.53
2018-11-05T13:12:38.118Z,18.63
2018-11-05T13:15:06.868Z,19.73
2018-11-05T13:17:35.827Z,23.00
2018-11-05T13:20:07.713Z,18.30
2018-11-05T13:22:35.949Z,20.23
2018-11-05T13:25:07.098Z,16.90
2018-11-05T13:27:35.248Z,19.40
2018-11-05T13:30:11.495Z,21.10
2018-11-05T13:32:40.231Z,21.80
2018-11-05T13:35:10.430Z,22.83
2018-11-05T13:37:39.101Z,22.90
2018-11-05T13:40:09.524Z,22.53
2018-11-05T13:42:37.741Z,22.20
2018-11-05T13:45:12.828Z,24.93
2018-11-05T13:47:41.524Z,22.33
2018-11-05T13:50:10.909Z,22.43
2018-11-05T13:52:39.306Z,22.03
2018-11-05T13:55:08.789Z,23.90
2018-11-05T13:57:37.231Z,21.90
2018-11-05T14:00:09.565Z,24.90
2018-11-05T14:02:37.928Z,23.77
2018-11-05T14:05:07.117Z,23.90
2018-11-05T14:07:35.705Z,22.23
2018-11-05T14:10:09.093Z,24.40
2018-11-05T14:12:37.382Z,26.37
2018-11-05T14:15:06.756Z,22.67
2018-11-05T14:17:35.011Z,20.33
2018-11-05T14:20:05.673Z,19.93
2018-11-05T14:22:33.848Z,19.53
2018-11-05T14:25:03.665Z,18.60
2018-11-05T14:27:33.015Z,24.10
2018-11-05T14:30:04.149Z,18.53
2018-11-05T14:32:32.960Z,20.40
2018-11-05T14:37:34.787Z,18.53
2018-11-05T14:40:04.709Z,23.93
2018-11-05T14:42:33.093Z,18.80
2018-11-05T14:45:02.840Z,18.47
2018-11-05T14:47:31.009Z,17.83
2018-11-05T14:49:59.173Z,17.20
2018-11-05T14:52:27.316Z,19.83
2018-11-05T14:54:55.475Z,23.50
2018-11-05T14:57:23.717Z,16.77
2018-11-05T14:59:51.807Z,22.30
2018-11-05T15:02:25.296Z,19.80
2018-11-05T15:04:53.473Z,23.67
2018-11-05T15:07:21.756Z,19.47
2018-11-05T15:09:49.888Z,21.27
2018-11-05T15:12:18.078Z,24.10
2018-11-05T15:14:46.251Z,26.07
2018-11-05T15:17:14.461Z,20.97
2018-11-05T15:19:43.068Z,22.23
2018-11-05T15:22:10.792Z,20.63
2018-11-05T15:24:39.040Z,25.27
2018-11-05T15:27:08.341Z,24.67
2018-11-05T15:29:36.514Z,24.93
2018-11-05T15:32:05.360Z,23.17
2018-11-05T15:34:33.550Z,23.43
2018-11-05T15:37:05.172Z,26.07
2018-11-05T15:39:33.396Z,20.90
2018-11-05T15:42:02.929Z,19.60
2018-11-05T15:44:31.112Z,23.83
2018-11-05T15:46:59.289Z,20.37
2018-11-05T15:49:27.468Z,24.00
2018-11-05T15:51:55.809Z,29.43
2018-11-05T15:54:24.873Z,26.33
2018-11-05T15:56:53.023Z,26.17
2018-11-05T15:59:21.288Z,29.10
2018-11-05T16:01:49.524Z,27.90
2018-11-05T16:04:17.757Z,28.67
2018-11-05T16:06:45.846Z,25.60
2018-11-05T16:09:14.171Z,23.70
2018-11-05T16:11:42.277Z,27.80
2018-11-05T16:14:10.668Z,25.30
2018-11-05T16:16:38.800Z,29.00
2018-11-05T16:19:07.308Z,24.37
2018-11-05T16:21:35.565Z,28.80
2018-11-05T16:24:06.893Z,22.30
2018-11-05T16:26:36.949Z,23.27
2018-11-05T16:29:07.752Z,25.57
2018-11-05T16:31:35.901Z,32.13
2018-11-05T16:34:07.275Z,25.30
2018-11-05T16:36:36.489Z,31.50
2018-11-05T16:39:07.734Z,29.10
2018-11-05T16:41:35.907Z,33.17
2018-11-05T16:44:07.098Z,31.37
2018-11-05T16:46:35.256Z,28.67
2018-11-05T16:49:05.847Z,25.90
2018-11-05T16:51:34.029Z,25.83
2018-11-05T16:54:06.321Z,26.10
2018-11-05T16:56:35.209Z,30.30
2018-11-05T16:59:06.981Z,27.37
2018-11-05T17:01:35.597Z,28.73
2018-11-05T17:04:06.241Z,31.43
2018-11-05T17:06:34.429Z,31.60
2018-11-05T17:09:03.550Z,37.13
2018-11-05T17:11:31.701Z,28.93
2018-11-05T17:13:59.897Z,31.17
2018-11-05T17:16:28.031Z,30.83
2018-11-05T17:18:57.025Z,32.30
2018-11-05T17:21:25.153Z,34.00
2018-11-05T17:23:54.189Z,33.70
2018-11-05T17:26:22.448Z,28.13
2018-11-05T17:28:50.522Z,30.67
2018-11-05T17:31:18.673Z,29.77
2018-11-05T17:33:46.933Z,34.10
2018-11-05T17:36:15.021Z,29.53
2018-11-05T17:38:43.164Z,36.80
2018-11-05T17:41:11.345Z,35.17
2018-11-05T17:43:39.540Z,32.17
2018-11-05T17:46:10.085Z,33.50
2018-11-05T17:48:39.009Z,30.80
2018-11-05T17:51:09.519Z,33.93
2018-11-05T17:53:37.749Z,34.87
2018-11-05T17:56:08.128Z,36.07
2018-11-05T17:58:37.325Z,35.07
2018-11-05T18:01:06.740Z,32.73
2018-11-05T18:03:34.904Z,30.47
2018-11-05T18:06:04.986Z,28.27
2018-11-05T18:08:33.141Z,28.33
2018-11-05T18:11:02.085Z,34.27
2018-11-05T18:13:30.772Z,29.60
2018-11-05T18:15:59.137Z,29.90
2018-11-05T18:18:27.324Z,28.67
2018-11-05T18:20:55.526Z,32.57
2018-11-05T18:23:23.692Z,30.57
2018-11-05T18:25:52.474Z,35.13
2018-11-05T18:28:20.600Z,34.27
2018-11-05T18:30:49.027Z,31.53
2018-11-05T18:33:17.204Z,34.40
2018-11-05T18:35:45.384Z,31.13
2018-11-05T18:38:13.662Z,28.43
2018-11-05T18:40:42.732Z,29.03
2018-11-05T18:43:10.926Z,36.87
2018-11-05T18:45:39.081Z,30.00
2018-11-05T18:48:07.265Z,35.90
2018-11-05T18:50:35.821Z,31.60
2018-11-05T18:53:04.934Z,37.33
2018-11-05T18:55:33.157Z,34.27
2018-11-05T18:58:02.025Z,34.40
2018-11-05T19:00:31.397Z,37.97
2018-11-05T19:02:59.564Z,37.07
2018-11-05T19:05:28.820Z,42.90
2018-11-05T19:07:57.165Z,37.93
2018-11-05T19:10:25.372Z,43.30
2018-11-05T19:12:54.057Z,44.40
2018-11-05T19:15:22.198Z,37.67
2018-11-05T19:17:50.817Z,45.40
2018-11-05T19:20:19.101Z,41.37
2018-11-05T19:22:47.643Z,40.17
2018-11-05T19:25:17.003Z,43.07
2018-11-05T19:27:45.172Z,52.57
2018-11-05T19:30:15.841Z,42.23
2018-11-05T19:32:44.519Z,37.67
2018-11-05T19:35:13.021Z,47.73
2018-11-05T19:37:41.809Z,51.20
2018-11-05T19:40:14.106Z,51.20
2018-11-05T19:42:43.262Z,41.20
2018-11-05T19:45:13.824Z,46.03
2018-11-05T19:47:42.007Z,41.90
2018-11-05T19:50:13.785Z,40.47
2018-11-05T19:52:42.911Z,35.30
2018-11-05T19:55:12.542Z,39.77
2018-11-05T19:57:41.660Z,49.07
2018-11-05T20:00:19.283Z,53.00
2018-11-05T20:02:48.213Z,42.97
2018-11-05T20:05:17.085Z,44.93
2018-11-05T20:07:45.709Z,46.13
2018-11-05T20:10:14.210Z,40.57
2018-11-05T20:12:43.663Z,45.70
2018-11-05T20:15:12.104Z,50.43
2018-11-05T20:17:41.377Z,50.83
2018-11-05T20:20:11.025Z,57.97
2018-11-05T20:22:39.468Z,45.87
2018-11-05T20:25:08.276Z,48.23
2018-11-05T20:27:37.260Z,53.97
2018-11-05T20:30:07.978Z,49.50
2018-11-05T20:32:36.493Z,52.47
2018-11-05T20:35:04.856Z,48.50
2018-11-05T20:37:33.009Z,49.87
2018-11-05T20:40:05.681Z,45.57
2018-11-05T20:42:33.733Z,54.43
2018-11-05T20:45:04.617Z,56.43
2018-11-05T20:47:32.833Z,52.87
2018-11-05T20:50:02.962Z,47.93
2018-11-05T20:52:31.093Z,53.80
2018-11-05T20:54:59.613Z,50.30
2018-11-05T20:57:27.731Z,46.27
2018-11-05T20:59:56.085Z,47.90
2018-11-05T21:02:24.249Z,53.90
2018-11-05T21:04:52.397Z,51.07
2018-11-05T21:07:20.548Z,54.17
2018-11-05T21:09:48.766Z,46.40
2018-11-05T21:12:17.039Z,61.43
2018-11-05T21:14:45.762Z,55.77
2018-11-05T21:17:13.995Z,55.60
2018-11-05T21:19:42.266Z,58.77
2018-11-05T21:22:12.111Z,50.93
2018-11-05T21:24:40.337Z,55.10
2018-11-05T21:27:08.793Z,53.23
2018-11-05T21:29:36.924Z,55.57
2018-11-05T21:32:05.097Z,54.37
2018-11-05T21:34:33.602Z,56.93
2018-11-05T21:37:03.722Z,55.93
2018-11-05T21:39:31.873Z,55.97
2018-11-05T21:42:00.041Z,49.80
2018-11-05T21:44:28.513Z,56.00
2018-11-05T21:46:57.613Z,50.00
2018-11-05T21:49:25.866Z,49.23
2018-11-05T21:51:54.018Z,45.47
2018-11-05T21:54:22.241Z,53.37
2018-11-05T21:56:50.361Z,47.90
2018-11-05T21:59:18.524Z,47.90
2018-11-05T22:01:46.697Z,35.70
2018-11-05T22:04:14.844Z,48.70
2018-11-05T22:06:43.000Z,41.57
2018-11-05T22:09:11.151Z,52.00
2018-11-05T22:11:39.304Z,40.30
2018-11-05T22:14:11.264Z,34.60
2018-11-05T22:16:39.535Z,41.10
2018-11-05T22:19:07.704Z,38.00
2018-11-05T22:21:36.244Z,38.10
2018-11-05T22:24:04.472Z,42.60
2018-11-05T22:26:32.624Z,43.80
2018-11-05T22:29:05.577Z,42.53
2018-11-05T22:31:33.749Z,42.27
2018-11-05T22:34:04.836Z,47.23
2018-11-05T22:36:32.997Z,48.03
2018-11-05T22:39:04.929Z,39.23
2018-11-05T22:41:33.113Z,44.63
2018-11-05T22:44:02.827Z,42.63
2018-11-05T22:46:30.928Z,45.40
2018-11-05T22:48:59.101Z,44.97
2018-11-05T22:51:27.379Z,47.73
2018-11-05T22:53:55.505Z,48.03
2018-11-05T22:56:23.660Z,42.70
2018-11-05T22:58:51.872Z,45.70
2018-11-05T23:01:25.517Z,42.83
2018-11-05T23:03:54.542Z,50.73
2018-11-05T23:06:22.696Z,43.77
2018-11-05T23:08:50.881Z,51.37
2018-11-05T23:11:19.082Z,44.70
2018-11-05T23:13:47.289Z,54.80
2018-11-05T23:16:15.444Z,52.20
2018-11-05T23:18:43.652Z,38.83
2018-11-05T23:21:11.812Z,54.33
2018-11-05T23:23:40.000Z,43.53
2018-11-05T23:26:08.172Z,44.30
2018-11-05T23:28:36.352Z,53.27
2018-11-05T23:31:06.693Z,37.57
2018-11-05T23:33:35.076Z,48.73
2018-11-05T23:36:06.805Z,51.10
2018-11-05T23:38:34.987Z,49.77
2018-11-05T23:41:04.544Z,37.70
2018-11-05T23:43:32.957Z,45.97
2018-11-05T23:46:02.924Z,37.63
2018-11-05T23:48:31.077Z,40.83
2018-11-05T23:50:59.284Z,44.63
2018-11-05T23:53:27.437Z,55.57
2018-11-05T23:55:55.602Z,49.73
2018-11-05T23:58:23.792Z,35.57
